Wolfe Island, Canada
Current Conditions -  °F | °C
As of 3:00 PM on Friday 19 Dec 2014 (Local Time) from CYGK Reporting Station
Broken Clouds Broken Clouds  
Wind Chill: 27°   Ceiling: 2500
Heat Index: 27°   Visibility: 15mi
Dew Point: 16°   Wind: 3mph
Humidity: 64%   Direction: 320°NW
Pressure: 30.17"   Gusts: NA
Location:  44.19°N, 76.44°W
Report Text: CYGK 192000Z 32003KT 15SM BKN025 M03/M09 A3017 RMK SC6 SLP221
Loading
Personal Weather Stations






























Interactive Weather Map New forecast layout! Learn more

10-Day Weather Forecast

Advertisements
Track Severe Weather on mobile